createdAt,value
2023-09-27T00:02:27.999Z,100326.28
2023-09-27T00:07:30.957Z,100298.59
2023-09-27T00:12:35.298Z,100280.94
2023-09-27T00:17:38.850Z,100273.06
2023-09-27T00:22:41.983Z,100278.94
2023-09-27T00:27:46.576Z,100260.28
2023-09-27T00:32:49.541Z,100247.91
2023-09-27T00:37:53.222Z,100226.47
2023-09-27T00:42:57.545Z,100222.03
2023-09-27T00:48:00.493Z,100204.19
2023-09-27T00:53:04.289Z,100207.78
2023-09-27T00:58:08.621Z,100192.75
2023-09-27T01:03:12.127Z,100189.91
2023-09-27T01:08:15.071Z,100180.16
2023-09-27T01:13:20.020Z,100178.16
2023-09-27T01:18:22.962Z,100178.88
2023-09-27T01:23:27.186Z,100175.09
2023-09-27T01:28:31.895Z,100176.66
2023-09-27T01:33:34.766Z,100162.56
2023-09-27T01:38:39.180Z,100166.53
2023-09-27T01:43:41.962Z,100154.28
2023-09-27T01:48:44.758Z,100148.63
2023-09-27T01:53:48.890Z,100153.97
2023-09-27T01:58:51.975Z,100145.84
2023-09-27T02:03:55.913Z,100139.56
2023-09-27T02:09:00.204Z,100134.19
2023-09-27T02:14:05.198Z,100138.59
2023-09-27T02:19:08.553Z,100141.81
2023-09-27T02:24:13.049Z,100139.00
2023-09-27T02:29:16.690Z,100120.63
2023-09-27T02:34:20.589Z,100061.41
2023-09-27T02:39:26.491Z,100055.84
2023-09-27T02:44:29.494Z,100053.19
2023-09-27T02:49:32.466Z,100043.31
2023-09-27T02:54:36.713Z,100008.81
2023-09-27T02:59:39.523Z,99999.81
2023-09-27T03:04:42.587Z,99988.47
2023-09-27T03:09:48.750Z,99979.63
2023-09-27T03:14:51.896Z,99969.75
2023-09-27T03:19:55.193Z,99954.63
2023-09-27T03:25:00.069Z,99946.66
2023-09-27T03:30:02.938Z,99951.81
2023-09-27T03:35:08.625Z,99939.38
2023-09-27T03:40:15.122Z,99934.41
2023-09-27T03:45:18.664Z,99924.53
2023-09-27T03:50:23.780Z,99905.16
2023-09-27T03:55:28.482Z,99874.97
2023-09-27T04:00:31.327Z,99871.47
2023-09-27T04:05:34.523Z,99863.47
2023-09-27T04:10:38.764Z,99835.31
2023-09-27T04:15:41.631Z,99827.44
2023-09-27T04:20:44.539Z,99817.50
2023-09-27T04:25:48.752Z,99800.59
2023-09-27T04:30:51.544Z,99783.81
2023-09-27T04:35:54.387Z,99776.53
2023-09-27T04:40:58.545Z,99757.22
2023-09-27T04:46:01.451Z,99741.25
2023-09-27T04:51:04.768Z,99706.06
2023-09-27T04:56:12.477Z,99688.47
2023-09-27T05:01:15.467Z,99691.13
2023-09-27T05:06:18.313Z,99674.09
2023-09-27T05:11:23.403Z,99664.53
2023-09-27T05:16:26.276Z,99643.16
2023-09-27T05:21:29.182Z,99602.88
2023-09-27T05:26:34.051Z,99592.13
2023-09-27T05:31:37.041Z,99568.38
2023-09-27T05:36:41.654Z,99547.34
2023-09-27T05:41:45.819Z,99530.50
2023-09-27T05:46:49.686Z,99484.88
2023-09-27T05:51:53.456Z,99448.75
2023-09-27T05:56:57.613Z,99314.03
2023-09-27T06:02:01.168Z,99270.91
2023-09-27T06:07:05.177Z,99210.16
2023-09-27T06:12:09.884Z,99120.41
2023-09-27T06:17:17.173Z,99067.63
2023-09-27T06:22:23.904Z,99021.03
2023-09-27T06:27:28.582Z,98990.28
2023-09-27T06:32:31.957Z,98955.94
2023-09-27T06:37:34.926Z,98936.63
2023-09-27T06:42:39.459Z,98895.19
2023-09-27T06:47:43.402Z,98883.75
2023-09-27T06:52:46.972Z,98889.03
2023-09-27T06:57:53.334Z,98867.03
2023-09-27T07:02:56.680Z,98853.78
2023-09-27T07:07:59.601Z,98859.16
2023-09-27T07:13:03.849Z,98873.31
2023-09-27T07:18:07.142Z,98879.53
2023-09-27T07:23:15.848Z,98883.16
2023-09-27T07:28:20.179Z,98918.47
2023-09-27T07:33:23.017Z,98928.25
2023-09-27T07:38:25.865Z,98945.03
2023-09-27T07:43:30.334Z,98993.69
2023-09-27T07:48:33.451Z,99068.91
2023-09-27T07:53:36.368Z,99098.13
2023-09-27T07:58:42.946Z,99147.75
2023-09-27T08:03:47.131Z,99237.25
2023-09-27T08:08:53.003Z,99270.00
2023-09-27T08:13:57.442Z,99334.72
2023-09-27T08:19:00.424Z,99362.19
2023-09-27T08:24:03.357Z,99422.50
2023-09-27T08:29:08.942Z,99466.03
2023-09-27T08:34:11.837Z,99546.78
2023-09-27T08:39:15.768Z,99604.41
2023-09-27T08:44:20.151Z,99646.88
2023-09-27T08:49:23.158Z,99652.22
2023-09-27T08:54:26.268Z,99688.56
2023-09-27T08:59:30.562Z,99709.00
2023-09-27T09:04:34.359Z,99733.03
2023-09-27T09:09:37.162Z,99759.69
2023-09-27T09:14:44.192Z,99809.41
2023-09-27T09:20:16.257Z,99855.59
2023-09-27T09:25:19.192Z,99897.41
2023-09-27T09:30:35.579Z,99950.75
2023-09-27T09:35:39.336Z,100003.34
2023-09-27T09:40:55.307Z,100074.50
2023-09-27T09:46:00.466Z,100120.84
2023-09-27T09:51:08.763Z,100120.94
2023-09-27T10:01:23.177Z,100228.47
2023-09-27T10:06:41.443Z,100272.91
2023-09-27T10:11:49.883Z,100317.63
2023-09-27T10:16:54.916Z,100346.94
2023-09-27T10:22:06.675Z,100365.94
2023-09-27T10:27:09.844Z,100391.81
2023-09-27T10:32:23.866Z,100413.31
2023-09-27T10:37:58.623Z,100392.31
2023-09-27T10:43:01.537Z,100480.56
2023-09-27T10:48:24.439Z,100508.38
2023-09-27T10:53:27.896Z,100565.41
2023-09-27T10:58:30.882Z,100574.31
2023-09-27T11:03:35.449Z,100570.16
2023-09-27T11:08:38.543Z,100571.94
2023-09-27T11:13:43.152Z,100562.31
2023-09-27T11:18:49.889Z,100552.63
2023-09-27T11:23:53.480Z,100507.03
2023-09-27T11:29:00.247Z,100490.19
2023-09-27T11:34:15.847Z,100484.84
2023-09-27T11:39:20.166Z,100521.50
2023-09-27T11:44:24.633Z,100534.91
2023-09-27T11:49:28.874Z,100552.81
2023-09-27T11:54:31.748Z,100582.25
2023-09-27T11:59:34.579Z,100614.47
2023-09-27T12:04:38.919Z,100644.84
2023-09-27T12:09:41.773Z,100670.78
2023-09-27T12:14:44.740Z,100711.94
2023-09-27T12:19:49.066Z,100719.16
2023-09-27T12:24:51.846Z,100746.84
2023-09-27T12:29:55.002Z,100745.94
2023-09-27T12:35:00.275Z,100771.94
2023-09-27T12:40:03.935Z,100796.13
2023-09-27T12:45:08.214Z,100801.47
2023-09-27T12:50:12.609Z,100794.31
2023-09-27T12:55:15.572Z,100796.09
2023-09-27T13:00:18.852Z,100788.00
2023-09-27T13:05:23.303Z,100795.22
2023-09-27T13:10:26.681Z,100789.84
2023-09-27T13:15:29.488Z,100788.94
2023-09-27T13:20:35.968Z,100786.25
2023-09-27T13:25:38.833Z,100787.16
2023-09-27T13:30:41.654Z,100784.47
2023-09-27T13:35:45.841Z,100769.22
2023-09-27T13:40:50.054Z,100778.16
2023-09-27T13:45:53.981Z,100780.84
2023-09-27T13:50:58.213Z,100774.56
2023-09-27T13:56:01.075Z,100777.25
2023-09-27T14:01:04.338Z,100765.59
2023-09-27T14:06:09.060Z,100762.94
2023-09-27T14:11:15.127Z,100758.44
2023-09-27T14:16:18.520Z,100758.44
2023-09-27T14:21:22.876Z,100758.41
2023-09-27T14:26:26.444Z,100754.88
2023-09-27T14:31:29.695Z,100748.56
2023-09-27T14:36:35.608Z,100752.16
2023-09-27T14:41:38.448Z,100745.91
2023-09-27T14:46:41.484Z,100748.59
2023-09-27T14:51:46.606Z,100733.34
2023-09-27T14:56:49.378Z,100732.44
2023-09-27T15:01:58.389Z,100730.66
2023-09-27T15:07:02.686Z,100731.56
2023-09-27T15:12:05.757Z,100722.66
2023-09-27T15:17:09.071Z,100724.44
2023-09-27T15:22:13.757Z,100718.22
2023-09-27T15:27:16.551Z,100716.44
2023-09-27T15:32:19.363Z,100716.44
2023-09-27T15:37:23.563Z,100713.78
2023-09-27T15:42:26.432Z,100719.16
2023-09-27T15:47:29.264Z,100706.63
2023-09-27T15:52:35.442Z,100699.44
2023-09-27T15:57:38.982Z,100705.72
2023-09-27T16:02:41.974Z,100709.28
2023-09-27T16:07:46.175Z,100707.50
2023-09-27T16:12:49.762Z,100709.25
2023-09-27T16:17:52.603Z,100713.75
2023-09-27T16:22:56.809Z,100712.84
2023-09-27T16:27:59.666Z,100705.69
2023-09-27T16:33:03.486Z,100697.66
2023-09-27T16:38:09.325Z,100692.28
2023-09-27T16:43:12.242Z,100664.53
2023-09-27T16:48:15.079Z,100659.16
2023-09-27T16:53:19.239Z,100662.69
2023-09-27T16:58:22.950Z,100659.97
2023-09-27T17:03:25.807Z,100645.63
2023-09-27T17:08:29.996Z,100649.16
2023-09-27T17:13:32.968Z,100631.25
2023-09-27T17:18:35.697Z,100629.44
2023-09-27T17:23:39.795Z,100616.03
2023-09-27T17:28:42.602Z,100608.88
2023-09-27T17:33:45.811Z,100604.31
2023-09-27T17:38:50.160Z,100590.88
2023-09-27T17:43:53.254Z,100585.31
2023-09-27T17:48:56.897Z,100567.38
2023-09-27T17:54:01.344Z,100539.75
2023-09-27T17:59:04.441Z,100521.00
2023-09-27T18:04:07.804Z,100507.50
2023-09-27T18:09:12.340Z,100478.06
2023-09-27T18:14:15.189Z,100456.59
2023-09-27T18:19:18.894Z,100432.47
2023-09-27T18:24:23.287Z,100406.53
2023-09-27T18:29:26.293Z,100376.09
2023-09-27T18:34:29.118Z,100355.66
2023-09-27T18:39:35.073Z,100336.91
2023-09-27T18:44:37.885Z,100328.03
2023-09-27T18:49:40.733Z,100326.22
2023-09-27T18:54:45.050Z,100306.44
2023-09-27T18:59:48.844Z,100277.97
2023-09-27T19:04:51.784Z,100261.97
2023-09-27T19:09:56.938Z,100065.22
2023-09-27T19:14:59.824Z,100029.56
2023-09-27T19:20:06.475Z,100029.59
2023-09-27T19:25:11.108Z,100042.03
2023-09-27T19:30:16.869Z,100051.75
2023-09-27T19:35:19.833Z,100064.19
2023-09-27T19:40:24.013Z,100060.63
2023-09-27T19:45:26.854Z,100066.72
2023-09-27T19:50:29.752Z,100071.09
2023-09-27T19:55:33.933Z,100070.16
2023-09-27T20:00:36.747Z,100075.44
2023-09-27T20:05:39.553Z,100062.94
2023-09-27T20:10:44.157Z,100069.09
2023-09-27T20:15:47.192Z,100072.59
2023-09-27T20:20:50.176Z,100075.09
2023-09-27T20:25:54.370Z,100078.72
2023-09-27T20:30:57.163Z,100084.81
2023-09-27T20:36:00.020Z,100067.03
2023-09-27T20:41:04.127Z,100062.50
2023-09-27T20:46:14.256Z,100063.44
2023-09-27T20:51:17.074Z,100066.19
2023-09-27T20:56:21.202Z,100078.59
2023-09-27T21:01:31.229Z,100078.47
2023-09-27T21:06:34.261Z,100083.81
2023-09-27T21:11:38.432Z,100095.25
2023-09-27T21:16:41.316Z,100088.13
2023-09-27T21:21:44.113Z,100080.03
2023-09-27T21:26:48.268Z,100081.78
2023-09-27T21:31:51.185Z,100082.56
2023-09-27T21:36:54.002Z,100093.16
2023-09-27T21:41:58.143Z,100079.81
2023-09-27T21:47:00.912Z,100080.41
2023-09-27T21:52:03.928Z,100081.31
2023-09-27T21:57:08.037Z,100084.88
2023-09-27T22:02:12.486Z,100090.97
2023-09-27T22:07:15.411Z,100098.84
2023-09-27T22:12:22.711Z,100101.25
2023-09-27T22:17:25.671Z,100096.88
2023-09-27T22:22:28.558Z,100080.81
2023-09-27T22:27:34.229Z,100074.59
2023-09-27T22:32:39.851Z,100079.19
2023-09-27T22:37:45.131Z,100084.19
2023-09-27T22:42:50.284Z,100069.84
2023-09-27T22:47:53.042Z,100044.44
2023-09-27T22:52:56.758Z,100034.63
2023-09-27T22:58:00.891Z,100009.84
2023-09-27T23:03:04.821Z,100004.56
2023-09-27T23:08:10.868Z,99991.19
2023-09-27T23:13:35.924Z,99986.84
2023-09-27T23:18:38.810Z,99953.09
2023-09-27T23:23:47.543Z,99939.72
2023-09-27T23:29:13.142Z,99933.53
2023-09-27T23:34:15.968Z,99949.53
2023-09-27T23:39:22.810Z,99976.09
2023-09-27T23:44:29.411Z,99953.03
2023-09-27T23:49:32.192Z,99961.88
2023-09-27T23:54:35.900Z,99969.75
2023-09-27T23:59:41.945Z,99957.28
